createdAt,value
2022-12-19T00:01:54.947Z,96731.59
2022-12-19T00:04:22.267Z,96729.91
2022-12-19T00:06:49.456Z,96744.41
2022-12-19T00:09:16.388Z,96737.41
2022-12-19T00:11:43.460Z,96722.22
2022-12-19T00:14:11.744Z,96745.34
2022-12-19T00:16:39.156Z,96743.63
2022-12-19T00:19:06.544Z,96757.34
2022-12-19T00:21:35.032Z,96746.00
2022-12-19T00:24:18.058Z,96760.44
2022-12-19T00:26:48.162Z,96737.22
2022-12-19T00:29:15.394Z,96749.78
2022-12-19T00:31:44.775Z,96753.56
2022-12-19T00:34:15.022Z,96756.19
2022-12-19T00:36:42.127Z,96746.91
2022-12-19T00:39:10.544Z,96754.81
2022-12-19T00:41:41.848Z,96755.63
2022-12-19T00:44:13.176Z,96744.97
2022-12-19T00:46:41.736Z,96750.38
2022-12-19T00:49:09.377Z,96741.66
2022-12-19T00:51:37.686Z,96765.16
2022-12-19T00:54:10.818Z,96757.13
2022-12-19T00:56:38.993Z,96741.38
2022-12-19T00:59:10.742Z,96759.47
2022-12-19T01:01:41.655Z,96753.25
2022-12-19T01:04:30.318Z,96760.16
2022-12-19T01:07:02.407Z,96744.00
2022-12-19T01:09:35.041Z,96764.72
2022-12-19T01:12:24.378Z,96766.25
2022-12-19T01:14:56.405Z,96755.84
2022-12-19T01:17:30.750Z,96754.56
2022-12-19T01:19:57.644Z,96762.81
2022-12-19T01:22:24.568Z,96736.84
2022-12-19T01:24:51.567Z,96767.66
2022-12-19T01:27:18.495Z,96774.94
2022-12-19T01:29:52.747Z,96762.97
2022-12-19T01:32:21.093Z,96786.72
2022-12-19T01:34:48.283Z,96781.72
2022-12-19T01:37:15.507Z,96774.66
2022-12-19T01:39:43.960Z,96768.19
2022-12-19T01:42:23.444Z,96760.16
2022-12-19T01:45:17.705Z,96713.56
2022-12-19T01:48:01.407Z,96764.94
2022-12-19T01:50:53.571Z,96755.38
2022-12-19T01:54:00.546Z,96772.56
2022-12-19T01:56:36.279Z,96743.06
2022-12-19T01:59:08.046Z,96743.78
2022-12-19T02:01:51.154Z,96758.31
2022-12-19T02:04:26.224Z,96751.81
2022-12-19T02:07:06.315Z,96750.88
2022-12-19T02:09:45.186Z,96761.53
2022-12-19T02:12:13.745Z,96741.34
2022-12-19T02:14:42.162Z,96757.78
2022-12-19T02:17:35.173Z,96747.56
2022-12-19T02:20:22.062Z,96739.53
2022-12-19T02:22:58.288Z,96758.03
2022-12-19T02:26:03.015Z,96755.00
2022-12-19T02:28:33.442Z,96768.72
2022-12-19T02:31:16.629Z,96770.94
2022-12-19T02:33:56.405Z,96779.38
2022-12-19T02:36:42.635Z,96773.13
2022-12-19T02:39:14.480Z,96773.50
2022-12-19T02:41:52.846Z,96758.00
2022-12-19T02:44:30.851Z,96771.97
2022-12-19T02:47:00.425Z,96718.25
2022-12-19T02:49:33.682Z,96773.38
2022-12-19T02:52:22.985Z,96767.06
2022-12-19T02:54:55.513Z,96743.97
2022-12-19T02:57:33.343Z,96769.13
2022-12-19T03:00:08.124Z,96753.09
2022-12-19T03:02:43.958Z,96759.03
2022-12-19T03:05:31.103Z,96746.41
2022-12-19T03:08:06.723Z,96738.16
2022-12-19T03:10:34.282Z,96750.88
2022-12-19T03:13:08.106Z,96745.16
2022-12-19T03:15:38.569Z,96741.28
2022-12-19T03:18:06.691Z,96746.78
2022-12-19T03:21:20.214Z,96742.31
2022-12-19T03:23:49.059Z,96749.91
2022-12-19T03:26:20.187Z,96750.88
2022-12-19T03:28:56.002Z,96766.53
2022-12-19T03:31:27.749Z,96757.16
2022-12-19T03:33:59.431Z,96764.44
2022-12-19T03:36:37.407Z,96772.06
2022-12-19T03:39:08.487Z,96778.16
2022-12-19T03:41:56.481Z,96783.84
2022-12-19T03:44:28.446Z,96765.63
2022-12-19T03:47:03.557Z,96765.38
2022-12-19T03:49:30.679Z,96771.28
2022-12-19T03:52:23.936Z,96762.88
2022-12-19T03:55:09.998Z,96716.59
2022-12-19T03:57:44.199Z,96767.16
2022-12-19T04:00:16.111Z,96786.38
2022-12-19T04:02:48.170Z,96786.41
2022-12-19T04:05:20.001Z,96764.69
2022-12-19T04:07:48.680Z,96799.69
2022-12-19T04:10:20.571Z,96796.81
2022-12-19T04:12:53.530Z,96805.75
2022-12-19T04:15:29.849Z,96772.22
2022-12-19T04:17:59.182Z,96749.13
2022-12-19T04:20:28.558Z,96804.78
2022-12-19T04:23:05.230Z,96817.00
2022-12-19T04:25:46.402Z,96660.59
2022-12-19T04:28:34.441Z,96814.34
2022-12-19T04:31:02.726Z,96817.94
2022-12-19T04:33:29.862Z,96732.09
2022-12-19T04:35:57.212Z,96814.63
2022-12-19T04:38:24.287Z,96801.47
2022-12-19T04:40:51.535Z,96787.94
2022-12-19T04:43:18.563Z,96779.13
2022-12-19T04:45:45.915Z,96784.78
2022-12-19T04:48:13.437Z,96805.13
2022-12-19T04:50:40.593Z,96806.63
2022-12-19T04:53:07.643Z,96797.22
2022-12-19T04:55:34.984Z,96825.56
2022-12-19T04:58:02.052Z,96820.03
2022-12-19T05:00:29.317Z,96815.59
2022-12-19T05:02:57.658Z,96808.91
2022-12-19T05:05:25.035Z,96828.81
2022-12-19T05:07:52.163Z,96812.09
2022-12-19T05:10:19.637Z,96776.16
2022-12-19T05:12:46.671Z,96732.22
2022-12-19T05:15:13.599Z,96810.59
2022-12-19T05:17:41.939Z,96820.53
2022-12-19T05:20:09.767Z,96818.50
2022-12-19T05:22:37.016Z,96824.31
2022-12-19T05:25:04.571Z,96762.53
2022-12-19T05:27:32.160Z,96805.78
2022-12-19T05:29:59.289Z,96787.94
2022-12-19T05:32:26.333Z,96828.59
2022-12-19T05:34:53.437Z,96775.53
2022-12-19T05:37:20.645Z,96836.25
2022-12-19T05:39:47.795Z,96809.84
2022-12-19T05:42:14.791Z,96825.72
2022-12-19T05:44:41.843Z,96837.75
2022-12-19T05:47:09.035Z,96831.66
2022-12-19T05:49:36.120Z,96789.63
2022-12-19T05:52:03.254Z,96808.97
2022-12-19T05:54:30.613Z,96791.44
2022-12-19T05:56:58.014Z,96833.88
2022-12-19T05:59:26.628Z,96803.16
2022-12-19T06:01:54.430Z,96820.31
2022-12-19T06:04:21.744Z,96844.06
2022-12-19T06:06:48.754Z,96835.91
2022-12-19T06:09:16.295Z,96827.50
2022-12-19T06:11:43.262Z,96855.41
2022-12-19T06:14:10.331Z,96831.63
2022-12-19T06:16:37.463Z,96838.50
2022-12-19T06:19:04.793Z,96853.97
2022-12-19T06:21:31.769Z,96818.16
2022-12-19T06:23:59.086Z,96801.16
2022-12-19T06:26:26.455Z,96821.31
2022-12-19T06:28:55.874Z,96861.66
2022-12-19T06:31:23.617Z,96860.53
2022-12-19T06:33:52.541Z,96861.66
2022-12-19T06:36:22.693Z,96844.09
2022-12-19T06:38:50.951Z,96850.69
2022-12-19T06:41:36.948Z,96805.38
2022-12-19T06:44:06.567Z,96772.53
2022-12-19T06:46:34.581Z,96721.97
2022-12-19T06:49:02.558Z,96850.59
2022-12-19T06:51:30.476Z,96858.59
2022-12-19T06:53:57.939Z,96876.97
2022-12-19T06:56:25.090Z,96870.78
2022-12-19T06:58:53.306Z,96848.13
2022-12-19T07:01:22.151Z,96882.38
2022-12-19T07:03:50.056Z,96865.81
2022-12-19T07:06:17.424Z,96878.78
2022-12-19T07:08:44.415Z,96888.31
2022-12-19T07:11:11.500Z,96853.59
2022-12-19T07:13:38.437Z,96909.28
2022-12-19T07:16:06.248Z,96900.81
2022-12-19T07:18:37.144Z,96884.06
2022-12-19T07:21:05.333Z,96897.22
2022-12-19T07:23:33.819Z,96913.09
2022-12-19T07:26:01.207Z,96881.84
2022-12-19T07:28:28.520Z,96842.88
2022-12-19T07:30:56.094Z,96867.69
2022-12-19T07:33:23.313Z,96887.78
2022-12-19T07:35:50.437Z,96895.09
2022-12-19T07:38:17.834Z,96893.00
2022-12-19T07:40:44.919Z,96859.72
2022-12-19T07:43:11.897Z,96906.31
2022-12-19T07:45:39.502Z,96920.72
2022-12-19T07:48:08.229Z,96924.03
2022-12-19T07:50:35.410Z,96905.53
2022-12-19T07:53:02.613Z,96932.09
2022-12-19T07:55:29.749Z,96899.59
2022-12-19T07:57:57.156Z,96953.25
2022-12-19T08:00:24.701Z,96878.31
2022-12-19T08:02:51.929Z,96938.19
2022-12-19T08:05:19.315Z,96952.69
2022-12-19T08:07:46.482Z,96948.81
2022-12-19T08:10:15.337Z,96954.91
2022-12-19T08:12:42.663Z,96961.28
2022-12-19T08:15:11.335Z,96909.53
2022-12-19T08:17:41.373Z,96934.13
2022-12-19T08:20:11.485Z,96953.03
2022-12-19T08:22:38.553Z,96967.03
2022-12-19T08:25:07.565Z,96960.66
2022-12-19T08:27:35.005Z,96968.00
2022-12-19T08:30:02.628Z,96971.47
2022-12-19T08:32:31.809Z,96955.31
2022-12-19T08:34:58.801Z,96964.69
2022-12-19T08:37:25.757Z,96955.16
2022-12-19T08:39:53.206Z,96962.03
2022-12-19T08:42:20.088Z,96958.81
2022-12-19T08:44:47.147Z,96954.38
2022-12-19T08:47:15.205Z,96950.91
2022-12-19T08:49:42.474Z,96953.38
2022-12-19T08:52:09.693Z,96951.97
2022-12-19T08:54:37.063Z,96939.34
2022-12-19T08:57:04.260Z,96900.00
2022-12-19T08:59:32.230Z,96938.75
2022-12-19T09:02:00.768Z,96927.59
2022-12-19T09:06:00.117Z,96934.63
2022-12-19T09:07:16.268Z,96930.47
2022-12-19T09:09:45.383Z,96925.03
2022-12-19T09:12:14.347Z,96923.09
2022-12-19T09:14:41.487Z,96901.75
2022-12-19T09:17:09.246Z,96904.38
2022-12-19T09:19:37.632Z,96892.72
2022-12-19T09:22:05.243Z,96898.72
2022-12-19T09:24:32.213Z,96890.22
2022-12-19T09:26:59.331Z,96881.38
2022-12-19T09:29:28.705Z,96891.44
2022-12-19T09:31:59.401Z,96877.50
2022-12-19T09:34:38.196Z,96893.59
2022-12-19T09:37:16.473Z,96861.88
2022-12-19T09:39:48.322Z,96871.88
2022-12-19T09:42:23.629Z,96878.72
2022-12-19T09:45:21.500Z,96865.38
2022-12-19T09:48:00.209Z,96842.41
2022-12-19T09:50:39.415Z,96874.53
2022-12-19T09:53:18.219Z,96854.03
2022-12-19T09:55:47.963Z,96873.41
2022-12-19T09:58:41.232Z,96866.69
2022-12-19T10:01:19.470Z,96833.78
2022-12-19T10:04:13.100Z,96813.16
2022-12-19T10:07:14.444Z,96847.06
2022-12-19T10:11:13.281Z,96863.78
2022-12-19T10:12:51.171Z,96846.28
2022-12-19T10:15:43.189Z,96789.06
2022-12-19T10:18:35.203Z,96838.19
2022-12-19T10:25:38.245Z,96822.50
2022-12-19T10:28:33.357Z,96827.31
2022-12-19T10:31:21.930Z,96815.59
2022-12-19T10:34:08.702Z,96816.88
2022-12-19T10:39:54.324Z,96818.38
2022-12-19T10:42:34.452Z,96814.25
2022-12-19T10:45:10.517Z,96791.09
2022-12-19T10:47:37.805Z,96746.63
2022-12-19T10:50:09.596Z,96796.09
2022-12-19T10:52:53.154Z,96796.09
2022-12-19T10:55:40.155Z,96778.41
2022-12-19T10:58:21.671Z,96801.72
2022-12-19T11:00:57.834Z,96797.91
2022-12-19T11:03:25.218Z,96796.09
2022-12-19T11:05:58.540Z,96782.88
2022-12-19T11:08:27.404Z,96784.34
2022-12-19T11:12:13.840Z,96796.75
2022-12-19T11:19:13.509Z,96774.44
2022-12-19T11:23:32.415Z,96790.81
2022-12-19T11:23:34.064Z,96777.75
2022-12-19T11:29:33.109Z,96783.03
2022-12-19T11:29:47.130Z,96777.75
2022-12-19T11:30:37.982Z,96741.38
2022-12-19T11:32:14.115Z,96748.47
2022-12-19T11:34:24.689Z,96781.88
2022-12-19T11:37:08.246Z,96776.59
2022-12-19T11:39:57.576Z,96790.00
2022-12-19T11:42:34.345Z,96785.22
2022-12-19T11:45:31.874Z,96783.56
2022-12-19T11:48:08.889Z,96780.75
2022-12-19T11:50:43.624Z,96751.13
2022-12-19T11:53:16.816Z,96781.56
2022-12-19T11:55:56.668Z,96788.66
2022-12-19T11:58:28.816Z,96779.59
2022-12-19T12:01:18.104Z,96763.53
2022-12-19T12:04:04.134Z,96776.25
2022-12-19T12:06:44.258Z,96777.41
2022-12-19T12:11:22.035Z,96784.03
2022-12-19T12:21:58.270Z,96786.34
2022-12-19T12:31:00.548Z,96789.00
2022-12-19T12:31:16.503Z,96772.31
2022-12-19T12:31:22.293Z,96782.22
2022-12-19T12:31:28.656Z,96788.00
2022-12-19T12:31:43.771Z,96777.09
2022-12-19T12:31:45.495Z,96783.53
2022-12-19T12:35:29.220Z,96792.66
2022-12-19T12:38:14.223Z,96787.84
2022-12-19T12:40:40.047Z,96789.66
2022-12-19T12:43:38.120Z,96800.59
2022-12-19T12:46:08.708Z,96792.50
2022-12-19T12:48:48.059Z,96783.72
2022-12-19T12:51:16.271Z,96790.00
2022-12-19T12:53:45.733Z,96791.81
2022-12-19T12:56:16.655Z,96777.25
2022-12-19T12:58:46.893Z,96770.63
2022-12-19T13:01:30.225Z,96771.66
2022-12-19T13:04:12.737Z,96779.25
2022-12-19T13:07:00.666Z,96772.97
2022-12-19T13:09:31.213Z,96787.00
2022-12-19T13:12:33.886Z,96790.66
2022-12-19T13:15:27.311Z,96785.38
2022-12-19T13:17:54.361Z,96782.72
2022-12-19T13:20:24.858Z,96780.09
2022-12-19T13:22:58.275Z,96797.41
2022-12-19T13:25:34.632Z,96795.94
2022-12-19T13:28:01.616Z,96795.78
2022-12-19T13:30:30.848Z,96802.91
2022-12-19T13:33:00.989Z,96808.00
2022-12-19T13:36:48.494Z,96804.34
2022-12-19T13:40:00.636Z,96809.34
2022-12-19T13:41:48.420Z,96811.31
2022-12-19T13:44:21.679Z,96818.09
2022-12-19T13:46:50.070Z,96786.84
2022-12-19T13:49:30.454Z,96810.97
2022-12-19T13:52:00.959Z,96810.97
2022-12-19T13:54:36.595Z,96814.63
2022-12-19T13:57:09.172Z,96810.81
2022-12-19T13:59:40.407Z,96812.31
2022-12-19T14:02:29.925Z,96822.56
2022-12-19T14:04:57.596Z,96806.69
2022-12-19T14:07:42.165Z,96752.44
2022-12-19T14:11:27.639Z,96749.34
2022-12-19T14:14:00.504Z,96818.75
2022-12-19T14:16:18.536Z,96819.41
2022-12-19T14:18:50.454Z,96805.88
2022-12-19T14:22:05.621Z,96822.56
2022-12-19T14:24:40.015Z,96835.78
2022-12-19T14:28:18.861Z,96831.78
2022-12-19T14:30:27.815Z,96824.53
2022-12-19T14:33:39.458Z,96816.75
2022-12-19T14:36:08.840Z,96804.19
2022-12-19T14:39:22.086Z,96821.53
2022-12-19T14:41:45.741Z,96832.63
2022-12-19T14:52:35.041Z,96815.94
2022-12-19T14:53:34.273Z,96815.44
2022-12-19T14:54:17.639Z,96806.03
2022-12-19T14:54:28.280Z,96773.94
2022-12-19T14:56:53.738Z,96784.03
2022-12-19T14:59:27.333Z,96809.16
2022-12-19T15:02:07.775Z,96801.38
2022-12-19T15:05:00.503Z,96782.53
2022-12-19T15:07:30.045Z,96802.38
2022-12-19T15:11:04.268Z,96794.75
2022-12-19T15:14:48.068Z,96791.91
2022-12-19T15:16:07.578Z,96775.69
2022-12-19T15:18:40.403Z,96799.00
2022-12-19T15:21:14.769Z,96803.78
2022-12-19T15:23:45.132Z,96785.44
2022-12-19T15:26:15.382Z,96805.22
2022-12-19T15:28:47.646Z,96804.22
2022-12-19T15:31:35.673Z,96814.94
2022-12-19T15:34:46.321Z,96803.34
2022-12-19T15:37:12.992Z,96810.78
2022-12-19T15:39:40.938Z,96814.38
2022-12-19T15:42:21.719Z,96806.41
2022-12-19T15:44:49.867Z,96823.28
2022-12-19T15:47:33.136Z,96836.97
2022-12-19T15:50:20.312Z,96814.78
2022-12-19T15:52:47.404Z,96837.13
2022-12-19T15:55:20.020Z,96829.19
2022-12-19T15:57:52.071Z,96823.25
2022-12-19T16:00:23.713Z,96814.78
2022-12-19T16:05:40.400Z,96830.13
2022-12-19T16:08:19.497Z,96803.66
2022-12-19T16:11:01.161Z,96794.66
2022-12-19T16:13:35.347Z,96814.69
2022-12-19T16:16:09.262Z,96818.44
2022-12-19T16:18:42.675Z,96824.63
2022-12-19T16:21:19.818Z,96840.13
2022-12-19T16:23:47.355Z,96830.22
2022-12-19T16:27:00.459Z,96830.22
2022-12-19T16:29:29.800Z,96801.50
2022-12-19T16:31:57.625Z,96845.69
2022-12-19T16:34:25.090Z,96842.34
2022-12-19T16:36:55.017Z,96831.91
2022-12-19T16:39:27.090Z,96811.22
2022-12-19T16:41:54.106Z,96820.63
2022-12-19T16:44:23.087Z,96845.63
2022-12-19T16:46:51.715Z,96848.44
2022-12-19T16:49:24.720Z,96842.16
2022-12-19T16:51:52.370Z,96832.84
2022-12-19T16:54:20.363Z,96809.19
2022-12-19T16:56:49.883Z,96837.34
2022-12-19T16:59:20.578Z,96826.94
2022-12-19T17:01:48.730Z,96849.41
2022-12-19T17:04:19.609Z,96847.75
2022-12-19T17:06:46.793Z,96823.28
2022-12-19T17:09:15.922Z,96838.47
2022-12-19T17:12:01.916Z,96844.72
2022-12-19T17:14:32.118Z,96856.13
2022-12-19T17:16:59.754Z,96844.72
2022-12-19T17:19:47.254Z,96849.72
2022-12-19T17:22:16.438Z,96838.63
2022-12-19T17:24:46.615Z,96843.28
2022-12-19T17:27:14.162Z,96847.59
2022-12-19T17:29:42.036Z,96828.84
2022-12-19T17:32:23.210Z,96841.63
2022-12-19T17:34:51.998Z,96848.72
2022-12-19T17:37:18.873Z,96833.34
2022-12-19T17:39:46.045Z,96848.56
2022-12-19T17:42:24.583Z,96854.22
2022-12-19T17:44:52.110Z,96851.75
2022-12-19T17:47:21.072Z,96836.66
2022-12-19T17:49:48.977Z,96828.06
2022-12-19T17:52:18.419Z,96847.59
2022-12-19T17:54:51.496Z,96793.31
2022-12-19T17:57:26.909Z,96848.44
2022-12-19T17:59:53.959Z,96822.31
2022-12-19T18:02:27.586Z,96825.28
2022-12-19T18:04:54.745Z,96834.69
2022-12-19T18:07:21.775Z,96833.19
2022-12-19T18:09:48.736Z,96829.22
2022-12-19T18:12:16.018Z,96824.59
2022-12-19T18:14:43.098Z,96847.97
2022-12-19T18:17:21.250Z,96850.91
2022-12-19T18:19:48.253Z,96852.88
2022-12-19T18:22:15.312Z,96841.94
2022-12-19T18:24:42.597Z,96852.72
2022-12-19T18:27:09.531Z,96833.84
2022-12-19T18:29:37.175Z,96860.97
2022-12-19T18:32:04.558Z,96855.88
2022-12-19T18:34:33.402Z,96831.88
2022-12-19T18:37:01.119Z,96843.91
2022-12-19T18:39:29.468Z,96799.72
2022-12-19T18:41:56.821Z,96833.97
2022-12-19T18:44:23.958Z,96846.53
2022-12-19T18:46:52.745Z,96774.88
2022-12-19T18:49:20.213Z,96850.22
2022-12-19T18:51:47.379Z,96852.16
2022-12-19T18:54:20.315Z,96843.19
2022-12-19T18:56:47.979Z,96854.25
2022-12-19T18:59:15.186Z,96851.91
2022-12-19T19:01:46.935Z,96861.72
2022-12-19T19:04:18.025Z,96861.88
2022-12-19T19:06:51.536Z,96866.00
2022-12-19T19:09:21.329Z,96875.25
2022-12-19T19:12:14.264Z,96885.81
2022-12-19T19:14:42.019Z,96880.53
2022-12-19T19:17:24.038Z,96879.03
2022-12-19T19:19:52.131Z,96829.19
2022-12-19T19:22:19.433Z,96873.09
2022-12-19T19:24:46.410Z,96852.22
2022-12-19T19:27:13.511Z,96826.72
2022-12-19T19:29:40.643Z,96867.81
2022-12-19T19:32:07.866Z,96876.53
2022-12-19T19:34:40.442Z,96866.31
2022-12-19T19:37:10.873Z,96857.50
2022-12-19T19:39:38.112Z,96876.03
2022-12-19T19:42:05.815Z,96857.66
2022-12-19T19:44:33.132Z,96871.50
2022-12-19T19:47:00.451Z,96884.94
2022-12-19T19:49:28.093Z,96873.81
2022-12-19T19:52:02.001Z,96899.94
2022-12-19T19:54:29.843Z,96853.91
2022-12-19T19:56:56.749Z,96884.56
2022-12-19T19:59:23.766Z,96893.16
2022-12-19T20:01:54.540Z,96866.09
2022-12-19T20:04:23.068Z,96883.66
2022-12-19T20:06:50.101Z,96895.72
2022-12-19T20:09:17.401Z,96847.13
2022-12-19T20:11:45.037Z,96876.16
2022-12-19T20:14:12.162Z,96873.28
2022-12-19T20:16:39.208Z,96884.75
2022-12-19T20:19:06.888Z,96896.94
2022-12-19T20:21:33.865Z,96882.69
2022-12-19T20:24:00.976Z,96879.91
2022-12-19T20:26:28.031Z,96882.84
2022-12-19T20:28:55.608Z,96877.03
2022-12-19T20:31:24.055Z,96834.56
2022-12-19T20:33:53.193Z,96862.75
2022-12-19T20:36:21.819Z,96866.88
2022-12-19T20:38:49.449Z,96883.50
2022-12-19T20:41:17.080Z,96872.22
2022-12-19T20:43:45.618Z,96865.91
2022-12-19T20:46:18.267Z,96870.09
2022-12-19T20:48:47.217Z,96878.63
2022-12-19T20:51:15.623Z,96870.03
2022-12-19T20:53:43.254Z,96892.75
2022-12-19T20:56:14.406Z,96896.06
2022-12-19T20:58:41.805Z,96812.06
2022-12-19T21:01:15.601Z,96881.97
2022-12-19T21:03:43.452Z,96868.56
2022-12-19T21:06:12.710Z,96869.56
2022-12-19T21:08:40.591Z,96873.31
2022-12-19T21:11:09.054Z,96863.88
2022-12-19T21:13:37.679Z,96855.59
2022-12-19T21:16:10.239Z,96876.06
2022-12-19T21:18:39.258Z,96870.94
2022-12-19T21:21:08.826Z,96866.13
2022-12-19T21:23:35.902Z,96875.81
2022-12-19T21:26:04.656Z,96870.72
2022-12-19T21:28:32.720Z,96861.88
2022-12-19T21:31:27.390Z,96872.69
2022-12-19T21:33:56.961Z,96867.09
2022-12-19T21:36:25.778Z,96823.34
2022-12-19T21:38:56.335Z,96875.31
2022-12-19T21:41:23.362Z,96872.00
2022-12-19T21:43:53.513Z,96869.78
2022-12-19T21:46:23.736Z,96880.16
2022-12-19T21:48:52.560Z,96869.63
2022-12-19T21:51:21.795Z,96854.88
2022-12-19T21:53:52.686Z,96872.69
2022-12-19T21:56:19.617Z,96869.97
2022-12-19T21:58:46.553Z,96849.13
2022-12-19T22:01:14.374Z,96866.38
2022-12-19T22:03:41.658Z,96847.53
2022-12-19T22:06:15.865Z,96844.22
2022-12-19T22:08:44.499Z,96840.53
2022-12-19T22:11:14.614Z,96821.47
2022-12-19T22:13:43.940Z,96839.44
2022-12-19T22:16:12.020Z,96845.94
2022-12-19T22:18:39.939Z,96832.81
2022-12-19T22:21:09.340Z,96799.94
2022-12-19T22:23:37.083Z,96828.28
2022-12-19T22:26:14.303Z,96825.25
2022-12-19T22:28:44.687Z,96828.72
2022-12-19T22:31:21.195Z,96839.09
2022-12-19T22:33:50.205Z,96843.81
2022-12-19T22:36:23.931Z,96845.91
2022-12-19T22:38:54.803Z,96818.44
2022-12-19T22:41:22.025Z,96849.13
2022-12-19T22:43:49.164Z,96827.72
2022-12-19T22:46:17.909Z,96821.06
2022-12-19T22:48:46.602Z,96832.38
2022-12-19T22:51:15.123Z,96783.50
2022-12-19T22:53:42.565Z,96816.50
2022-12-19T22:56:16.627Z,96815.41
2022-12-19T22:58:46.547Z,96841.41
2022-12-19T23:01:20.588Z,96777.72
2022-12-19T23:03:54.186Z,96822.63
2022-12-19T23:06:22.678Z,96822.63
2022-12-19T23:08:50.414Z,96820.28
2022-12-19T23:11:21.801Z,96765.97
2022-12-19T23:13:50.005Z,96802.59
2022-12-19T23:16:17.263Z,96800.81
2022-12-19T23:18:44.804Z,96809.53
2022-12-19T23:21:18.176Z,96802.06
2022-12-19T23:23:47.776Z,96791.16
2022-12-19T23:26:18.373Z,96815.88
2022-12-19T23:28:51.374Z,96796.41
2022-12-19T23:31:18.745Z,96814.91
2022-12-19T23:33:45.891Z,96804.81
2022-12-19T23:36:13.566Z,96805.66
2022-12-19T23:38:42.233Z,96810.63
2022-12-19T23:41:11.554Z,96814.78
2022-12-19T23:43:39.449Z,96823.50
2022-12-19T23:46:13.599Z,96824.34
2022-12-19T23:48:41.843Z,96728.97
2022-12-19T23:51:13.287Z,96817.69
2022-12-19T23:53:40.493Z,96805.25
2022-12-19T23:56:13.438Z,96783.84
2022-12-19T23:58:41.198Z,96819.63
